createdAt,value
2018-12-19T00:00:14.265Z,21.27
2018-12-19T00:02:46.544Z,22.07
2018-12-19T00:05:18.713Z,23.13
2018-12-19T00:07:50.862Z,23.70
2018-12-19T00:10:21.130Z,22.77
2018-12-19T00:12:51.270Z,22.57
2018-12-19T00:15:21.574Z,31.10
2018-12-19T00:17:53.807Z,22.57
2018-12-19T00:20:24.062Z,23.77
2018-12-19T00:22:54.273Z,23.23
2018-12-19T00:25:24.441Z,24.07
2018-12-19T00:27:56.835Z,22.67
2018-12-19T00:30:29.026Z,22.47
2018-12-19T00:33:01.195Z,26.10
2018-12-19T00:35:33.351Z,22.77
2018-12-19T00:38:03.561Z,22.97
2018-12-19T00:40:34.031Z,23.70
2018-12-19T00:43:04.256Z,22.80
2018-12-19T00:45:34.666Z,22.73
2018-12-19T00:48:04.953Z,23.70
2018-12-19T00:50:36.008Z,22.53
2018-12-19T00:53:07.762Z,24.07
2018-12-19T00:55:38.134Z,24.57
2018-12-19T00:58:08.348Z,20.97
2018-12-19T01:00:38.641Z,22.70
2018-12-19T01:03:08.865Z,23.40
2018-12-19T01:05:39.229Z,22.30
2018-12-19T01:08:09.489Z,21.47
2018-12-19T01:10:39.798Z,21.30
2018-12-19T01:13:10.009Z,22.23
2018-12-19T01:15:40.193Z,22.43
2018-12-19T01:18:10.358Z,20.60
2018-12-19T01:20:40.539Z,21.67
2018-12-19T01:23:10.678Z,23.37
2018-12-19T01:25:40.851Z,21.43
2018-12-19T01:28:11.028Z,21.20
2018-12-19T01:30:41.204Z,19.33
2018-12-19T01:33:12.420Z,23.00
2018-12-19T01:35:42.629Z,22.13
2018-12-19T01:38:12.992Z,21.80
2018-12-19T01:40:43.188Z,23.53
2018-12-19T01:43:13.471Z,21.63
2018-12-19T01:45:43.629Z,21.80
2018-12-19T01:48:13.834Z,20.43
2018-12-19T01:50:44.013Z,21.40
2018-12-19T01:53:14.188Z,21.30
2018-12-19T01:55:44.708Z,21.73
2018-12-19T01:58:14.890Z,23.50
2018-12-19T02:00:45.153Z,21.97
2018-12-19T02:03:15.379Z,20.63
2018-12-19T02:05:45.580Z,20.27
2018-12-19T02:08:15.921Z,21.10
2018-12-19T02:10:46.468Z,19.60
2018-12-19T02:13:16.676Z,22.40
2018-12-19T02:15:46.930Z,19.57
2018-12-19T02:18:17.124Z,17.40
2018-12-19T02:20:47.463Z,18.83
2018-12-19T02:23:17.752Z,19.73
2018-12-19T02:25:48.039Z,19.90
2018-12-19T02:28:18.517Z,20.57
2018-12-19T02:30:48.750Z,20.10
2018-12-19T02:33:18.972Z,20.00
2018-12-19T02:35:49.190Z,20.10
2018-12-19T02:38:19.433Z,17.70
2018-12-19T02:40:49.619Z,19.80
2018-12-19T02:43:20.961Z,19.33
2018-12-19T02:45:51.312Z,18.33
2018-12-19T02:48:21.473Z,19.47
2018-12-19T02:50:51.810Z,19.40
2018-12-19T02:53:22.042Z,20.10
2018-12-19T02:55:52.461Z,18.20
2018-12-19T02:58:22.605Z,19.60
2018-12-19T03:00:52.885Z,18.80
2018-12-19T03:03:23.106Z,17.90
2018-12-19T03:05:53.288Z,18.27
2018-12-19T03:08:23.471Z,18.67
2018-12-19T03:10:53.921Z,18.83
2018-12-19T03:13:24.325Z,18.47
2018-12-19T03:15:54.505Z,17.60
2018-12-19T03:18:24.763Z,19.30
2018-12-19T03:20:55.034Z,17.30
2018-12-19T03:23:25.221Z,21.20
2018-12-19T03:25:55.355Z,18.77
2018-12-19T03:28:25.802Z,19.30
2018-12-19T03:30:56.005Z,19.60
2018-12-19T03:33:28.306Z,20.43
2018-12-19T03:36:00.278Z,21.23
2018-12-19T03:38:30.633Z,20.40
2018-12-19T03:41:00.932Z,21.47
2018-12-19T03:43:31.096Z,19.67
2018-12-19T03:46:01.262Z,22.80
2018-12-19T03:48:36.787Z,22.60
2018-12-19T03:51:06.968Z,22.27
2018-12-19T03:53:37.119Z,24.50
2018-12-19T03:56:07.317Z,21.07
2018-12-19T03:58:37.476Z,23.37
2018-12-19T04:01:07.693Z,22.03
2018-12-19T04:03:37.917Z,22.60
2018-12-19T04:06:08.095Z,22.43
2018-12-19T04:08:39.445Z,23.40
2018-12-19T04:11:09.668Z,22.50
2018-12-19T04:13:39.962Z,22.77
2018-12-19T04:16:10.219Z,23.03
2018-12-19T04:18:40.413Z,21.83
2018-12-19T04:21:10.632Z,21.07
2018-12-19T04:23:40.772Z,20.83
2018-12-19T04:26:11.051Z,21.87
2018-12-19T04:28:41.201Z,23.30
2018-12-19T04:31:11.382Z,20.17
2018-12-19T04:33:41.531Z,20.17
2018-12-19T04:36:11.824Z,21.50
2018-12-19T04:38:42.298Z,18.97
2018-12-19T04:41:12.546Z,20.37
2018-12-19T04:43:42.814Z,24.70
2018-12-19T04:46:13.059Z,20.47
2018-12-19T04:48:43.247Z,19.50
2018-12-19T04:51:13.470Z,17.70
2018-12-19T04:53:43.716Z,19.33
2018-12-19T04:56:14.056Z,18.93
2018-12-19T04:58:44.346Z,17.83
2018-12-19T05:01:14.650Z,19.47
2018-12-19T05:03:44.897Z,18.10
2018-12-19T05:06:15.221Z,20.03
2018-12-19T05:08:45.533Z,19.47
2018-12-19T05:11:15.784Z,18.00
2018-12-19T05:13:45.972Z,19.00
2018-12-19T05:16:16.298Z,16.67
2018-12-19T05:18:46.529Z,19.23
2018-12-19T05:21:16.771Z,18.53
2018-12-19T05:23:46.973Z,15.53
2018-12-19T05:26:17.201Z,15.70
2018-12-19T05:28:47.415Z,16.13
2018-12-19T05:31:17.638Z,18.30
2018-12-19T05:33:47.897Z,17.77
2018-12-19T05:36:18.353Z,15.53
2018-12-19T05:38:48.589Z,16.20
2018-12-19T05:41:18.760Z,16.13
2018-12-19T05:43:48.987Z,19.70
2018-12-19T05:46:19.323Z,20.20
2018-12-19T05:48:49.484Z,18.77
2018-12-19T05:51:19.682Z,16.30
2018-12-19T05:53:49.893Z,17.43
2018-12-19T05:56:20.170Z,14.73
2018-12-19T05:58:50.545Z,14.00
2018-12-19T06:01:20.705Z,13.80
2018-12-19T06:03:52.874Z,15.00
2018-12-19T06:06:23.048Z,15.57
2018-12-19T06:08:53.282Z,16.97
2018-12-19T06:11:23.493Z,16.43
2018-12-19T06:13:53.787Z,16.00
2018-12-19T06:16:24.230Z,16.40
2018-12-19T06:18:54.480Z,17.57
2018-12-19T06:21:24.679Z,16.33
2018-12-19T06:23:55.414Z,15.90
2018-12-19T06:26:27.440Z,15.00
2018-12-19T06:28:59.122Z,14.83
2018-12-19T06:31:29.443Z,14.40
2018-12-19T06:34:00.151Z,14.73
2018-12-19T06:36:30.490Z,15.97
2018-12-19T06:39:00.625Z,14.93
2018-12-19T06:41:32.795Z,16.60
2018-12-19T06:44:02.977Z,17.60
2018-12-19T06:46:34.737Z,17.80
2018-12-19T06:49:05.094Z,16.27
2018-12-19T06:51:35.430Z,13.53
2018-12-19T06:54:05.791Z,13.87
2018-12-19T06:56:36.270Z,16.07
2018-12-19T06:59:06.523Z,14.37
2018-12-19T07:01:36.790Z,14.50
2018-12-19T07:04:06.959Z,14.33
2018-12-19T07:06:37.148Z,14.33
2018-12-19T07:09:09.260Z,14.03
2018-12-19T07:11:39.467Z,16.30
2018-12-19T07:14:09.735Z,15.83
2018-12-19T07:16:43.490Z,14.53
2018-12-19T07:19:12.191Z,17.77
2018-12-19T07:21:42.413Z,12.80
2018-12-19T07:24:12.729Z,14.83
2018-12-19T07:26:42.893Z,13.13
2018-12-19T07:29:13.106Z,12.93
2018-12-19T07:31:43.351Z,13.80
2018-12-19T07:34:13.634Z,13.03
2018-12-19T07:36:43.789Z,12.70
2018-12-19T07:39:13.967Z,13.23
2018-12-19T07:41:44.163Z,13.70
2018-12-19T07:44:14.540Z,14.60
2018-12-19T07:46:44.693Z,11.90
2018-12-19T07:49:14.979Z,11.07
2018-12-19T07:51:45.227Z,11.87
2018-12-19T07:54:15.508Z,11.10
2018-12-19T07:56:45.939Z,9.70
2018-12-19T07:59:16.455Z,9.30
2018-12-19T08:01:46.686Z,9.50
2018-12-19T08:04:17.477Z,8.70
2018-12-19T08:06:47.674Z,8.87
2018-12-19T08:09:17.959Z,8.27
2018-12-19T08:11:48.151Z,8.17
2018-12-19T08:14:18.399Z,8.90
2018-12-19T08:16:48.622Z,8.00
2018-12-19T08:19:18.861Z,8.63
2018-12-19T08:21:49.046Z,8.83
2018-12-19T08:24:19.203Z,9.50
2018-12-19T08:26:49.448Z,9.10
2018-12-19T08:29:19.701Z,8.93
2018-12-19T08:31:50.375Z,9.77
2018-12-19T08:34:20.639Z,9.70
2018-12-19T08:36:50.990Z,10.00
2018-12-19T08:39:21.646Z,9.60
2018-12-19T08:41:52.257Z,11.13
2018-12-19T08:44:22.453Z,12.23
2018-12-19T08:46:52.725Z,10.80
2018-12-19T08:49:22.948Z,11.43
2018-12-19T08:51:53.218Z,11.23
2018-12-19T08:54:23.503Z,11.23
2018-12-19T08:56:53.713Z,13.50
2018-12-19T08:59:23.908Z,13.10
2018-12-19T09:01:54.120Z,12.10
2018-12-19T09:04:25.862Z,12.63
2018-12-19T09:06:56.326Z,13.13
2018-12-19T09:09:26.567Z,14.10
2018-12-19T09:11:56.754Z,12.83
2018-12-19T09:14:27.268Z,14.50
2018-12-19T09:16:57.416Z,11.97
2018-12-19T09:19:27.622Z,12.37
2018-12-19T09:21:58.113Z,11.93
2018-12-19T09:24:28.358Z,13.63
2018-12-19T09:26:58.550Z,13.33
2018-12-19T09:29:28.815Z,13.70
2018-12-19T09:31:58.978Z,11.80
2018-12-19T09:34:29.207Z,11.20
2018-12-19T09:36:59.508Z,12.40
2018-12-19T09:39:29.650Z,12.17
2018-12-19T09:41:59.900Z,10.97
2018-12-19T09:44:30.124Z,12.43
2018-12-19T09:47:00.615Z,12.57
2018-12-19T09:49:30.849Z,12.33
2018-12-19T09:52:01.162Z,12.23
2018-12-19T09:54:31.442Z,11.93
2018-12-19T09:57:01.755Z,11.20
2018-12-19T09:59:31.959Z,25.93
2018-12-19T10:02:02.391Z,21.30
2018-12-19T10:04:32.578Z,12.60
2018-12-19T10:07:02.727Z,12.27
2018-12-19T10:09:32.954Z,12.37
2018-12-19T10:12:03.129Z,11.03
2018-12-19T10:14:34.989Z,11.07
2018-12-19T10:17:05.430Z,10.83
2018-12-19T10:19:35.750Z,10.10
2018-12-19T10:22:06.055Z,10.67
2018-12-19T10:24:41.503Z,11.10
2018-12-19T10:27:13.703Z,10.80
2018-12-19T10:29:43.995Z,9.63
2018-12-19T10:32:14.222Z,10.03
2018-12-19T10:34:44.500Z,8.87
2018-12-19T10:37:14.680Z,13.53
2018-12-19T10:39:44.975Z,8.50
2018-12-19T10:42:15.276Z,19.73
2018-12-19T10:44:45.435Z,11.73
2018-12-19T10:47:15.602Z,8.00
2018-12-19T10:49:45.806Z,10.00
2018-12-19T10:52:15.965Z,8.87
2018-12-19T10:54:46.165Z,7.90
2018-12-19T10:57:16.352Z,8.40
2018-12-19T10:59:46.641Z,7.60
2018-12-19T11:02:16.815Z,6.77
2018-12-19T11:04:47.018Z,6.40
2018-12-19T11:07:17.368Z,7.43
2018-12-19T11:09:47.585Z,7.03
2018-12-19T11:12:17.807Z,9.40
2018-12-19T11:14:48.009Z,7.60
2018-12-19T11:17:18.186Z,9.93
2018-12-19T11:19:48.372Z,6.43
2018-12-19T11:22:18.531Z,7.60
2018-12-19T11:24:48.700Z,8.20
2018-12-19T11:27:18.933Z,12.07
2018-12-19T11:29:49.115Z,13.10
2018-12-19T11:32:19.304Z,11.50
2018-12-19T11:34:49.545Z,11.90
2018-12-19T11:37:19.767Z,18.73
2018-12-19T11:39:49.933Z,18.70
2018-12-19T11:42:20.179Z,16.47
2018-12-19T11:44:50.368Z,13.40
2018-12-19T11:47:20.694Z,11.00
2018-12-19T11:49:50.907Z,8.93
2018-12-19T11:52:21.110Z,8.23
2018-12-19T11:54:51.333Z,8.50
2018-12-19T11:57:21.677Z,8.27
2018-12-19T11:59:52.090Z,7.93
2018-12-19T12:02:22.308Z,7.53
2018-12-19T12:04:52.532Z,7.37
2018-12-19T12:07:24.864Z,7.70
2018-12-19T12:09:55.905Z,8.70
2018-12-19T12:12:26.101Z,9.60
2018-12-19T12:14:56.254Z,8.93
2018-12-19T12:17:26.446Z,9.00
2018-12-19T12:19:56.626Z,9.30
2018-12-19T12:22:26.894Z,9.10
2018-12-19T12:24:57.085Z,10.13
2018-12-19T12:27:27.387Z,9.50
2018-12-19T12:29:57.623Z,9.60
2018-12-19T12:32:27.847Z,9.97
2018-12-19T12:34:58.086Z,9.70
2018-12-19T12:37:28.269Z,9.93
2018-12-19T12:39:58.589Z,11.23
2018-12-19T12:42:28.823Z,9.37
2018-12-19T12:44:59.059Z,9.53
2018-12-19T12:47:29.220Z,10.07
2018-12-19T12:49:59.464Z,10.93
2018-12-19T12:52:29.729Z,11.20
2018-12-19T12:54:59.950Z,11.07
2018-12-19T12:57:30.139Z,11.93
2018-12-19T13:00:00.404Z,30.53
2018-12-19T13:02:30.661Z,33.90
2018-12-19T13:05:02.455Z,25.63
2018-12-19T13:07:32.835Z,16.57
2018-12-19T13:10:03.031Z,15.10
2018-12-19T13:12:33.302Z,14.10
2018-12-19T13:15:03.527Z,11.93
2018-12-19T13:17:33.849Z,12.70
2018-12-19T13:20:04.902Z,12.70
2018-12-19T13:22:35.184Z,11.67
2018-12-19T13:25:05.942Z,12.47
2018-12-19T13:27:36.218Z,12.63
2018-12-19T13:30:08.845Z,11.70
2018-12-19T13:32:39.094Z,12.37
2018-12-19T13:35:10.429Z,11.53
2018-12-19T13:37:40.687Z,12.20
2018-12-19T13:40:11.269Z,12.70
2018-12-19T13:42:41.570Z,22.73
2018-12-19T13:45:11.752Z,12.43
2018-12-19T13:47:41.946Z,11.73
2018-12-19T13:50:12.131Z,11.77
2018-12-19T13:52:42.730Z,11.83
2018-12-19T13:55:12.902Z,11.20
2018-12-19T13:57:43.268Z,10.60
2018-12-19T14:00:13.474Z,10.27
2018-12-19T14:02:43.790Z,10.30
2018-12-19T14:05:14.170Z,10.27
2018-12-19T14:07:44.445Z,9.90
2018-12-19T14:10:14.766Z,11.10
2018-12-19T14:12:44.946Z,10.20
2018-12-19T14:15:15.122Z,8.37
2018-12-19T14:17:45.339Z,8.83
2018-12-19T14:20:15.514Z,8.60
2018-12-19T14:22:45.964Z,8.50
2018-12-19T14:25:16.190Z,9.00
2018-12-19T14:27:46.363Z,7.63
2018-12-19T14:30:16.512Z,9.10
2018-12-19T14:32:46.721Z,8.87
2018-12-19T14:35:18.050Z,10.20
2018-12-19T14:37:48.205Z,8.47
2018-12-19T14:40:18.756Z,9.73
2018-12-19T14:42:48.981Z,10.23
2018-12-19T14:45:19.342Z,9.90
2018-12-19T14:47:49.754Z,9.70
2018-12-19T14:50:19.926Z,10.37
2018-12-19T14:52:50.178Z,10.47
2018-12-19T14:55:20.318Z,10.20
2018-12-19T14:57:50.515Z,10.50
2018-12-19T15:00:21.823Z,9.60
2018-12-19T15:02:52.426Z,9.47
2018-12-19T15:05:22.883Z,10.40
2018-12-19T15:07:53.224Z,10.20
2018-12-19T15:10:23.450Z,9.70
2018-12-19T15:12:53.796Z,10.83
2018-12-19T15:15:24.078Z,10.07
2018-12-19T15:17:54.417Z,10.00
2018-12-19T15:20:24.840Z,9.23
2018-12-19T15:22:55.355Z,10.47
2018-12-19T15:25:25.872Z,11.40
2018-12-19T15:27:56.136Z,11.50
2018-12-19T15:30:26.542Z,11.30
2018-12-19T15:32:58.027Z,11.13
2018-12-19T15:35:28.344Z,12.23
2018-12-19T15:37:58.557Z,11.17
2018-12-19T15:40:29.376Z,11.30
2018-12-19T15:42:59.554Z,13.60
2018-12-19T15:45:29.758Z,12.53
2018-12-19T15:47:59.918Z,11.37
2018-12-19T15:50:30.096Z,11.73
2018-12-19T15:53:00.410Z,10.73
2018-12-19T15:55:30.676Z,10.37
2018-12-19T15:58:01.024Z,13.60
2018-12-19T16:00:31.262Z,12.70
2018-12-19T16:03:01.624Z,12.70
2018-12-19T16:05:31.992Z,13.80
2018-12-19T16:08:02.257Z,12.13
2018-12-19T16:10:32.523Z,9.47
2018-12-19T16:13:02.740Z,8.90
2018-12-19T16:15:32.950Z,9.50
2018-12-19T16:18:03.220Z,10.47
2018-12-19T16:20:33.482Z,10.20
2018-12-19T16:23:03.675Z,10.33
2018-12-19T16:25:33.824Z,10.10
2018-12-19T16:28:04.151Z,9.93
2018-12-19T16:30:35.375Z,10.17
2018-12-19T16:33:05.649Z,10.10
2018-12-19T16:35:35.826Z,10.67
2018-12-19T16:38:06.722Z,9.70
2018-12-19T16:40:37.020Z,11.20
2018-12-19T16:43:07.236Z,10.40
2018-12-19T16:45:37.542Z,10.03
2018-12-19T16:48:09.392Z,11.20
2018-12-19T16:50:39.648Z,12.70
2018-12-19T16:53:09.831Z,12.07
2018-12-19T16:55:40.014Z,10.87
2018-12-19T16:58:10.319Z,11.50
2018-12-19T17:00:40.609Z,11.90
2018-12-19T17:03:10.777Z,13.93
2018-12-19T17:05:41.182Z,16.40
2018-12-19T17:08:11.342Z,14.20
2018-12-19T17:10:41.598Z,13.47
2018-12-19T17:13:11.848Z,13.47
2018-12-19T17:15:42.152Z,14.67
2018-12-19T17:18:12.496Z,16.30
2018-12-19T17:20:42.754Z,16.93
2018-12-19T17:23:12.949Z,16.17
2018-12-19T17:25:43.242Z,16.60
2018-12-19T17:28:13.500Z,17.20
2018-12-19T17:30:43.640Z,17.83
2018-12-19T17:33:14.020Z,16.63
2018-12-19T17:35:44.170Z,17.67
2018-12-19T17:38:14.463Z,16.83
2018-12-19T17:40:44.830Z,14.63
2018-12-19T17:43:15.281Z,15.00
2018-12-19T17:45:45.455Z,14.77
2018-12-19T17:48:25.335Z,15.30
2018-12-19T17:51:02.989Z,14.80
2018-12-19T17:53:46.564Z,15.40
2018-12-19T17:56:17.621Z,16.17
2018-12-19T17:58:48.000Z,18.03
2018-12-19T18:01:18.459Z,11.97
2018-12-19T18:03:49.655Z,11.43
2018-12-19T18:06:20.603Z,12.30
2018-12-19T18:08:50.816Z,13.00
2018-12-19T18:11:21.033Z,11.73
2018-12-19T18:13:51.510Z,11.40
2018-12-19T18:16:21.697Z,13.57
2018-12-19T18:18:51.886Z,12.70
2018-12-19T18:21:22.033Z,11.57
2018-12-19T18:23:52.229Z,11.80
2018-12-19T18:26:22.587Z,11.07
2018-12-19T18:28:52.903Z,12.97
2018-12-19T18:31:23.156Z,12.87
2018-12-19T18:33:54.032Z,12.30
2018-12-19T18:36:24.265Z,12.90
2018-12-19T18:38:54.589Z,13.07
2018-12-19T18:41:24.698Z,11.70
2018-12-19T18:43:56.052Z,12.60
2018-12-19T18:46:26.381Z,10.70
2018-12-19T18:48:56.708Z,12.40
2018-12-19T18:51:26.892Z,11.50
2018-12-19T18:53:57.031Z,12.37
2018-12-19T18:56:27.444Z,15.63
2018-12-19T18:58:57.760Z,18.33
2018-12-19T19:01:27.997Z,18.20
2018-12-19T19:03:58.383Z,17.40
2018-12-19T19:06:28.635Z,15.03
2018-12-19T19:08:58.841Z,12.80
2018-12-19T19:11:29.020Z,13.97
2018-12-19T19:13:59.189Z,14.50
2018-12-19T19:16:29.719Z,13.70
2018-12-19T19:19:00.067Z,12.80
2018-12-19T19:21:30.173Z,11.93
2018-12-19T19:24:00.508Z,12.63
2018-12-19T19:26:31.068Z,12.10
2018-12-19T19:29:02.693Z,11.33
2018-12-19T19:31:33.038Z,11.13
2018-12-19T19:34:03.385Z,9.60
2018-12-19T19:36:33.559Z,9.30
2018-12-19T19:39:03.954Z,8.80
2018-12-19T19:41:36.281Z,10.60
2018-12-19T19:44:06.619Z,11.20
2018-12-19T19:46:36.905Z,12.30
2018-12-19T19:49:07.124Z,12.10
2018-12-19T19:51:37.412Z,12.90
2018-12-19T19:54:07.670Z,13.63
2018-12-19T19:56:37.823Z,12.00
2018-12-19T19:59:08.123Z,11.30
2018-12-19T20:01:38.462Z,14.50
2018-12-19T20:04:08.756Z,14.43
2018-12-19T20:06:39.163Z,15.10
2018-12-19T20:09:10.124Z,14.13
2018-12-19T20:11:41.570Z,13.17
2018-12-19T20:14:11.827Z,13.17
2018-12-19T20:16:47.117Z,11.57
2018-12-19T20:19:17.332Z,13.30
2018-12-19T20:21:47.610Z,12.10
2018-12-19T20:24:18.891Z,12.63
2018-12-19T20:26:49.111Z,12.40
2018-12-19T20:29:19.450Z,13.13
2018-12-19T20:31:49.899Z,12.67
2018-12-19T20:34:20.086Z,12.77
2018-12-19T20:36:50.278Z,13.90
2018-12-19T20:39:20.476Z,15.90
2018-12-19T20:41:51.322Z,14.10
2018-12-19T20:44:21.585Z,12.47
2018-12-19T20:46:51.892Z,11.50
2018-12-19T20:49:22.051Z,13.23
2018-12-19T20:51:52.885Z,13.23
2018-12-19T20:54:23.173Z,14.40
2018-12-19T20:56:53.480Z,13.03
2018-12-19T20:59:23.798Z,15.30
2018-12-19T21:01:54.000Z,15.73
2018-12-19T21:04:24.286Z,13.40
2018-12-19T21:06:54.568Z,13.43
2018-12-19T21:09:24.744Z,15.43
2018-12-19T21:11:54.913Z,13.77
2018-12-19T21:14:25.127Z,13.83
2018-12-19T21:17:00.642Z,13.80
2018-12-19T21:19:30.859Z,14.20
2018-12-19T21:22:01.153Z,14.47
2018-12-19T21:24:31.482Z,14.30
2018-12-19T21:27:01.653Z,13.83
2018-12-19T21:29:31.970Z,15.47
2018-12-19T21:32:02.191Z,13.30
2018-12-19T21:34:32.579Z,13.77
2018-12-19T21:37:02.875Z,13.27
2018-12-19T21:39:33.273Z,14.57
2018-12-19T21:42:03.467Z,13.90
2018-12-19T21:44:33.786Z,14.80
2018-12-19T21:47:04.075Z,14.90
2018-12-19T21:49:34.475Z,16.57
2018-12-19T21:52:04.660Z,16.97
2018-12-19T21:54:35.089Z,15.03
2018-12-19T21:57:05.264Z,16.03
2018-12-19T21:59:35.544Z,16.03
2018-12-19T22:02:06.886Z,15.60
2018-12-19T22:04:37.261Z,17.83
2018-12-19T22:07:07.517Z,15.57
2018-12-19T22:09:37.896Z,16.33
2018-12-19T22:12:08.042Z,15.87
2018-12-19T22:14:38.206Z,15.57
2018-12-19T22:17:13.477Z,15.47
2018-12-19T22:19:43.633Z,15.43
2018-12-19T22:22:15.229Z,17.53
2018-12-19T22:24:45.500Z,15.70
2018-12-19T22:27:15.691Z,16.73
2018-12-19T22:29:45.875Z,15.87
2018-12-19T22:32:16.046Z,15.23
2018-12-19T22:34:46.318Z,15.67
2018-12-19T22:37:16.522Z,15.20
2018-12-19T22:39:46.756Z,13.07
2018-12-19T22:42:17.030Z,16.00
2018-12-19T22:44:47.436Z,14.47
2018-12-19T22:47:24.561Z,15.90
2018-12-19T22:49:54.785Z,16.77
2018-12-19T22:52:25.098Z,17.30
2018-12-19T22:54:55.432Z,19.17
2018-12-19T22:57:25.698Z,18.53
2018-12-19T22:59:56.009Z,19.00
2018-12-19T23:02:31.580Z,20.60
2018-12-19T23:05:01.761Z,18.40
2018-12-19T23:07:32.373Z,17.53
2018-12-19T23:10:02.687Z,16.50
2018-12-19T23:12:34.227Z,16.37
2018-12-19T23:15:04.590Z,16.20
2018-12-19T23:17:40.637Z,16.27
2018-12-19T23:20:16.775Z,15.50
2018-12-19T23:22:52.455Z,14.53
2018-12-19T23:25:28.047Z,14.17
2018-12-19T23:28:00.207Z,13.53
2018-12-19T23:30:30.669Z,15.30
2018-12-19T23:33:00.983Z,15.37
2018-12-19T23:35:31.158Z,14.60
2018-12-19T23:38:01.712Z,16.20
2018-12-19T23:40:38.652Z,16.60
2018-12-19T23:43:09.051Z,17.20
2018-12-19T23:45:39.305Z,17.10
2018-12-19T23:48:09.549Z,16.90
2018-12-19T23:50:39.804Z,15.53
2018-12-19T23:53:10.195Z,15.90
2018-12-19T23:55:40.490Z,16.50
2018-12-19T23:58:10.667Z,16.13
